This is the latest recevied weather packets stored in our database for station/object DC1RS. If no packets are shown the sender has not sent any weather packets the latest 10 day(s).
| Time | Temp. | Humidity | Pressure | Rain* | Wind** | Luminosity | Snow |
|---|---|---|---|---|---|---|---|
| 1777433721 | 7.78° C | 65% | 1020.5 hPa | 0 mm | - | 0 W/m² | - |
| 1777431471 | 8.33° C | 62% | 1020.3 hPa | 0 mm | - | 0 W/m² | - |
| 1777429911 | 9.44° C | 58% | 1020.1 hPa | 0 mm | - | 0 W/m² | - |
| 1777428651 | 10.56° C | 54% | 1019.9 hPa | 0 mm | - | 0 W/m² | - |
| 1777427091 | 10° C | 57% | 1019.6 hPa | 0 mm | - | 0 W/m² | - |
| 1777425641 | 11.11° C | 52% | 1019.5 hPa | 0 mm | - | 0 W/m² | - |
| 1777424842 | 11.67° C | 50% | 1019.3 hPa | 0 mm | - | 0 W/m² | - |
| 1777423251 | 11.67° C | 51% | 1019.3 hPa | 0 mm | - | 0 W/m² | - |
| 1777421391 | 11.67° C | 51% | 1019.1 hPa | 0 mm | - | 0 W/m² | - |
| 1777419861 | 12.22° C | 48% | 1019.3 hPa | 0 mm | - | 0 W/m² | - |
| 1777418271 | 12.78° C | 47% | 1019 hPa | 0 mm | - | 0 W/m² | - |
| 1777417011 | 12.78° C | 46% | 1019 hPa | 0 mm | - | 0 W/m² | - |
| 1777415421 | 13.33° C | 44% | 1019 hPa | 0 mm | - | 0 W/m² | - |
| 1777412901 | 14.44° C | 42% | 1018.8 hPa | 0 mm | - | 0 W/m² | - |
| 1777411281 | 14.44° C | 41% | 1018.8 hPa | 0 mm | - | 0 W/m² | - |
| 1777410051 | 15° C | 40% | 1018.5 hPa | 0 mm | - | 0 W/m² | - |
| 1777408461 | 15° C | 40% | 1018.4 hPa | 0 mm | - | 0 W/m² | - |
| 1777406742 | 15° C | 40% | 1017.8 hPa | 0 mm | - | 0 W/m² | - |
| 1777405151 | 15.56° C | 40% | 1017.8 hPa | 0 mm | - | 0 W/m² | - |
| 1777402821 | 15.56° C | 42% | 1017.5 hPa | 0 mm | - | 0 W/m² | - |
| 1777401231 | 16.11° C | 40% | 1017.3 hPa | 0 mm | - | 0 W/m² | - |
| 1777399611 | 17.22° C | 38% | 1017.1 hPa | 0 mm | - | 6 W/m² | - |
| 1777398711 | 17.78° C | 36% | 1016.8 hPa | 0 mm | - | 15 W/m² | - |
| 1777397151 | 18.33° C | 33% | 1016.7 hPa | 0 mm | - | 39 W/m² | - |
| 1777394931 | 19.44° C | 32% | 1016.3 hPa | 0 mm | - | 88 W/m² | - |
* Rain latest hour (hover to see other rain measurements)
** Current wind speed in m/s (hover to see current wind gust speed)